sensor_id;sensor_type;location;lat;lon;timestamp;P1;durP1;ratioP1;P2;durP2;ratioP2
52934;SDS011;38802;50.198;19.796;2023-07-29T00:02:22;2.10;;;1.60;;
52934;SDS011;38802;50.198;19.796;2023-07-29T00:04:50;3.40;;;2.30;;
52934;SDS011;38802;50.198;19.796;2023-07-29T00:07:18;2.30;;;1.90;;
52934;SDS011;38802;50.198;19.796;2023-07-29T00:09:46;2.30;;;2.10;;
52934;SDS011;38802;50.198;19.796;2023-07-29T00:12:14;3.70;;;1.90;;
52934;SDS011;38802;50.198;19.796;2023-07-29T00:14:42;1.60;;;1.40;;
52934;SDS011;38802;50.198;19.796;2023-07-29T00:17:11;2.20;;;1.80;;
52934;SDS011;38802;50.198;19.796;2023-07-29T00:19:39;2.80;;;2.20;;
52934;SDS011;38802;50.198;19.796;2023-07-29T00:22:07;3.20;;;2.10;;
52934;SDS011;38802;50.198;19.796;2023-07-29T00:24:36;2.80;;;2.40;;
52934;SDS011;38802;50.198;19.796;2023-07-29T00:27:04;2.40;;;2.20;;
52934;SDS011;38802;50.198;19.796;2023-07-29T00:29:32;2.20;;;2.00;;
52934;SDS011;38802;50.198;19.796;2023-07-29T00:32:01;2.70;;;2.50;;
52934;SDS011;38802;50.198;19.796;2023-07-29T00:34:29;2.60;;;2.20;;
52934;SDS011;38802;50.198;19.796;2023-07-29T00:36:58;2.30;;;2.10;;
52934;SDS011;38802;50.198;19.796;2023-07-29T00:39:26;2.90;;;2.40;;
52934;SDS011;38802;50.198;19.796;2023-07-29T00:41:54;2.80;;;2.50;;
52934;SDS011;38802;50.198;19.796;2023-07-29T00:44:22;3.70;;;2.40;;
52934;SDS011;38802;50.198;19.796;2023-07-29T00:46:52;2.30;;;2.10;;
52934;SDS011;38802;50.198;19.796;2023-07-29T00:49:20;2.40;;;2.20;;
52934;SDS011;38802;50.198;19.796;2023-07-29T00:51:49;2.50;;;2.30;;
52934;SDS011;38802;50.198;19.796;2023-07-29T00:54:17;4.40;;;2.50;;
52934;SDS011;38802;50.198;19.796;2023-07-29T00:56:45;2.90;;;2.70;;
52934;SDS011;38802;50.198;19.796;2023-07-29T00:59:13;3.20;;;2.50;;
52934;SDS011;38802;50.198;19.796;2023-07-29T01:01:41;6.40;;;2.50;;
52934;SDS011;38802;50.198;19.796;2023-07-29T01:04:10;5.20;;;3.20;;
52934;SDS011;38802;50.198;19.796;2023-07-29T01:06:47;2.80;;;2.50;;
52934;SDS011;38802;50.198;19.796;2023-07-29T01:17:13;2.90;;;2.60;;
52934;SDS011;38802;50.198;19.796;2023-07-29T01:22:28;4.30;;;2.40;;
52934;SDS011;38802;50.198;19.796;2023-07-29T01:24:59;2.80;;;2.50;;
52934;SDS011;38802;50.198;19.796;2023-07-29T01:27:27;2.30;;;2.10;;
52934;SDS011;38802;50.198;19.796;2023-07-29T01:29:55;2.60;;;2.40;;
52934;SDS011;38802;50.198;19.796;2023-07-29T01:32:28;3.40;;;2.50;;
52934;SDS011;38802;50.198;19.796;2023-07-29T01:38:09;3.90;;;2.90;;
52934;SDS011;38802;50.198;19.796;2023-07-29T01:40:52;3.00;;;2.60;;
52934;SDS011;38802;50.198;19.796;2023-07-29T01:43:21;2.60;;;2.20;;
52934;SDS011;38802;50.198;19.796;2023-07-29T01:45:53;4.60;;;2.30;;
52934;SDS011;38802;50.198;19.796;2023-07-29T01:48:21;3.00;;;2.70;;
52934;SDS011;38802;50.198;19.796;2023-07-29T01:50:50;3.80;;;2.30;;
52934;SDS011;38802;50.198;19.796;2023-07-29T01:53:18;5.10;;;2.60;;
52934;SDS011;38802;50.198;19.796;2023-07-29T01:55:46;5.20;;;2.40;;
52934;SDS011;38802;50.198;19.796;2023-07-29T01:58:16;3.00;;;2.10;;
52934;SDS011;38802;50.198;19.796;2023-07-29T02:00:47;3.00;;;1.90;;
52934;SDS011;38802;50.198;19.796;2023-07-29T02:03:15;4.10;;;2.20;;
52934;SDS011;38802;50.198;19.796;2023-07-29T02:05:44;3.50;;;2.20;;
52934;SDS011;38802;50.198;19.796;2023-07-29T02:08:12;6.50;;;2.50;;
52934;SDS011;38802;50.198;19.796;2023-07-29T02:10:40;3.70;;;2.20;;
52934;SDS011;38802;50.198;19.796;2023-07-29T02:13:08;3.00;;;2.00;;
52934;SDS011;38802;50.198;19.796;2023-07-29T02:15:36;4.10;;;2.50;;
52934;SDS011;38802;50.198;19.796;2023-07-29T02:18:04;4.30;;;2.40;;
52934;SDS011;38802;50.198;19.796;2023-07-29T02:20:34;3.80;;;2.60;;
52934;SDS011;38802;50.198;19.796;2023-07-29T02:23:02;3.70;;;2.30;;
52934;SDS011;38802;50.198;19.796;2023-07-29T02:25:30;3.80;;;2.30;;
52934;SDS011;38802;50.198;19.796;2023-07-29T02:27:58;2.40;;;2.20;;
52934;SDS011;38802;50.198;19.796;2023-07-29T02:30:26;2.60;;;2.30;;
52934;SDS011;38802;50.198;19.796;2023-07-29T02:32:54;4.10;;;2.50;;
52934;SDS011;38802;50.198;19.796;2023-07-29T02:35:22;2.70;;;2.40;;
52934;SDS011;38802;50.198;19.796;2023-07-29T02:37:50;2.40;;;2.20;;
52934;SDS011;38802;50.198;19.796;2023-07-29T02:40:20;2.90;;;2.70;;
52934;SDS011;38802;50.198;19.796;2023-07-29T02:42:48;3.10;;;2.50;;
52934;SDS011;38802;50.198;19.796;2023-07-29T02:45:16;6.60;;;3.80;;
52934;SDS011;38802;50.198;19.796;2023-07-29T02:47:44;4.50;;;2.30;;
52934;SDS011;38802;50.198;19.796;2023-07-29T02:50:12;3.00;;;2.80;;
52934;SDS011;38802;50.198;19.796;2023-07-29T02:52:40;6.00;;;2.90;;
52934;SDS011;38802;50.198;19.796;2023-07-29T02:55:08;3.00;;;2.50;;
52934;SDS011;38802;50.198;19.796;2023-07-29T02:57:36;3.60;;;2.50;;
52934;SDS011;38802;50.198;19.796;2023-07-29T03:00:05;3.20;;;2.90;;
52934;SDS011;38802;50.198;19.796;2023-07-29T03:02:35;3.50;;;2.70;;
52934;SDS011;38802;50.198;19.796;2023-07-29T03:05:03;3.20;;;2.50;;
52934;SDS011;38802;50.198;19.796;2023-07-29T03:07:31;2.90;;;2.30;;
52934;SDS011;38802;50.198;19.796;2023-07-29T03:10:00;4.40;;;2.60;;
52934;SDS011;38802;50.198;19.796;2023-07-29T03:12:28;5.20;;;3.10;;
52934;SDS011;38802;50.198;19.796;2023-07-29T03:14:56;3.10;;;2.80;;
52934;SDS011;38802;50.198;19.796;2023-07-29T03:17:24;3.60;;;3.00;;
52934;SDS011;38802;50.198;19.796;2023-07-29T03:19:52;3.30;;;2.90;;
52934;SDS011;38802;50.198;19.796;2023-07-29T03:22:20;3.90;;;3.10;;
52934;SDS011;38802;50.198;19.796;2023-07-29T03:24:48;3.20;;;2.70;;
52934;SDS011;38802;50.198;19.796;2023-07-29T03:27:16;3.90;;;2.90;;
52934;SDS011;38802;50.198;19.796;2023-07-29T03:29:44;3.70;;;3.00;;
52934;SDS011;38802;50.198;19.796;2023-07-29T03:32:12;2.60;;;2.20;;
52934;SDS011;38802;50.198;19.796;2023-07-29T03:34:40;8.60;;;2.50;;
52934;SDS011;38802;50.198;19.796;2023-07-29T03:37:08;3.30;;;2.50;;
52934;SDS011;38802;50.198;19.796;2023-07-29T03:39:36;3.60;;;2.60;;
52934;SDS011;38802;50.198;19.796;2023-07-29T03:42:04;4.80;;;2.40;;
52934;SDS011;38802;50.198;19.796;2023-07-29T03:44:33;5.00;;;2.60;;
52934;SDS011;38802;50.198;19.796;2023-07-29T03:47:01;2.40;;;2.20;;
52934;SDS011;38802;50.198;19.796;2023-07-29T03:49:29;2.80;;;2.30;;
52934;SDS011;38802;50.198;19.796;2023-07-29T03:51:58;4.90;;;2.00;;
52934;SDS011;38802;50.198;19.796;2023-07-29T03:54:26;3.90;;;2.50;;
52934;SDS011;38802;50.198;19.796;2023-07-29T03:56:54;2.90;;;2.30;;
52934;SDS011;38802;50.198;19.796;2023-07-29T03:59:22;3.00;;;2.70;;
52934;SDS011;38802;50.198;19.796;2023-07-29T04:01:50;3.50;;;2.60;;
52934;SDS011;38802;50.198;19.796;2023-07-29T04:04:19;2.80;;;2.50;;
52934;SDS011;38802;50.198;19.796;2023-07-29T04:06:48;6.10;;;2.40;;
52934;SDS011;38802;50.198;19.796;2023-07-29T04:09:16;3.60;;;2.30;;
52934;SDS011;38802;50.198;19.796;2023-07-29T04:11:44;2.90;;;2.30;;
52934;SDS011;38802;50.198;19.796;2023-07-29T04:14:12;3.80;;;2.60;;
52934;SDS011;38802;50.198;19.796;2023-07-29T04:16:40;3.00;;;2.70;;
52934;SDS011;38802;50.198;19.796;2023-07-29T04:19:08;2.30;;;2.10;;
52934;SDS011;38802;50.198;19.796;2023-07-29T04:21:36;5.40;;;2.40;;
52934;SDS011;38802;50.198;19.796;2023-07-29T04:24:04;3.50;;;2.70;;
52934;SDS011;38802;50.198;19.796;2023-07-29T04:26:32;3.60;;;2.70;;
52934;SDS011;38802;50.198;19.796;2023-07-29T04:29:01;3.00;;;2.50;;
52934;SDS011;38802;50.198;19.796;2023-07-29T04:31:29;2.70;;;2.40;;
52934;SDS011;38802;50.198;19.796;2023-07-29T04:33:59;5.90;;;2.30;;
52934;SDS011;38802;50.198;19.796;2023-07-29T04:36:27;2.70;;;2.30;;
52934;SDS011;38802;50.198;19.796;2023-07-29T04:38:55;2.50;;;2.10;;
52934;SDS011;38802;50.198;19.796;2023-07-29T04:41:23;7.90;;;2.30;;
52934;SDS011;38802;50.198;19.796;2023-07-29T04:43:51;3.30;;;2.60;;
52934;SDS011;38802;50.198;19.796;2023-07-29T04:46:20;5.40;;;2.10;;
52934;SDS011;38802;50.198;19.796;2023-07-29T04:48:48;2.40;;;1.90;;
52934;SDS011;38802;50.198;19.796;2023-07-29T04:51:16;2.80;;;2.10;;
52934;SDS011;38802;50.198;19.796;2023-07-29T04:53:44;7.50;;;2.50;;
52934;SDS011;38802;50.198;19.796;2023-07-29T04:56:13;2.00;;;1.90;;
52934;SDS011;38802;50.198;19.796;2023-07-29T04:58:45;3.00;;;1.80;;
52934;SDS011;38802;50.198;19.796;2023-07-29T05:01:13;7.40;;;1.80;;
52934;SDS011;38802;50.198;19.796;2023-07-29T05:03:41;2.70;;;2.00;;
52934;SDS011;38802;50.198;19.796;2023-07-29T05:06:09;2.50;;;1.90;;
52934;SDS011;38802;50.198;19.796;2023-07-29T05:08:37;2.60;;;1.70;;
52934;SDS011;38802;50.198;19.796;2023-07-29T05:11:05;2.70;;;1.40;;
52934;SDS011;38802;50.198;19.796;2023-07-29T05:13:33;1.90;;;1.70;;
52934;SDS011;38802;50.198;19.796;2023-07-29T05:16:01;3.50;;;1.70;;
52934;SDS011;38802;50.198;19.796;2023-07-29T05:18:29;3.90;;;1.80;;
52934;SDS011;38802;50.198;19.796;2023-07-29T05:20:58;7.00;;;2.20;;
52934;SDS011;38802;50.198;19.796;2023-07-29T05:23:27;1.90;;;1.40;;
52934;SDS011;38802;50.198;19.796;2023-07-29T05:25:55;2.10;;;1.90;;
52934;SDS011;38802;50.198;19.796;2023-07-29T05:28:23;3.90;;;2.00;;
52934;SDS011;38802;50.198;19.796;2023-07-29T05:30:51;2.90;;;1.60;;
52934;SDS011;38802;50.198;19.796;2023-07-29T05:33:20;2.20;;;1.60;;
52934;SDS011;38802;50.198;19.796;2023-07-29T05:35:49;1.80;;;1.40;;
52934;SDS011;38802;50.198;19.796;2023-07-29T05:38:17;2.50;;;1.80;;
52934;SDS011;38802;50.198;19.796;2023-07-29T05:40:45;1.80;;;1.40;;
52934;SDS011;38802;50.198;19.796;2023-07-29T05:43:16;1.80;;;1.50;;
52934;SDS011;38802;50.198;19.796;2023-07-29T05:45:44;1.80;;;1.50;;
52934;SDS011;38802;50.198;19.796;2023-07-29T05:48:12;2.50;;;1.50;;
52934;SDS011;38802;50.198;19.796;2023-07-29T05:50:40;3.60;;;1.60;;
52934;SDS011;38802;50.198;19.796;2023-07-29T05:53:08;5.10;;;1.30;;
52934;SDS011;38802;50.198;19.796;2023-07-29T05:55:36;1.80;;;1.10;;
52934;SDS011;38802;50.198;19.796;2023-07-29T05:58:04;2.00;;;1.30;;
52934;SDS011;38802;50.198;19.796;2023-07-29T06:00:33;1.80;;;1.40;;
52934;SDS011;38802;50.198;19.796;2023-07-29T06:03:01;5.50;;;1.30;;
52934;SDS011;38802;50.198;19.796;2023-07-29T06:05:30;3.40;;;1.60;;
52934;SDS011;38802;50.198;19.796;2023-07-29T06:07:58;2.10;;;1.70;;
52934;SDS011;38802;50.198;19.796;2023-07-29T06:10:26;1.60;;;1.30;;
52934;SDS011;38802;50.198;19.796;2023-07-29T06:12:55;1.80;;;1.20;;
52934;SDS011;38802;50.198;19.796;2023-07-29T06:15:23;2.30;;;1.80;;
52934;SDS011;38802;50.198;19.796;2023-07-29T06:17:51;2.50;;;1.30;;
52934;SDS011;38802;50.198;19.796;2023-07-29T06:20:23;1.90;;;1.40;;
52934;SDS011;38802;50.198;19.796;2023-07-29T06:22:51;2.40;;;1.50;;
52934;SDS011;38802;50.198;19.796;2023-07-29T06:25:19;3.60;;;1.60;;
52934;SDS011;38802;50.198;19.796;2023-07-29T06:27:47;3.30;;;1.70;;
52934;SDS011;38802;50.198;19.796;2023-07-29T06:30:16;2.80;;;1.40;;
52934;SDS011;38802;50.198;19.796;2023-07-29T06:32:44;2.60;;;1.10;;
52934;SDS011;38802;50.198;19.796;2023-07-29T06:35:12;5.50;;;1.50;;
52934;SDS011;38802;50.198;19.796;2023-07-29T06:37:40;2.10;;;1.00;;
52934;SDS011;38802;50.198;19.796;2023-07-29T06:40:08;3.40;;;1.70;;
52934;SDS011;38802;50.198;19.796;2023-07-29T06:42:36;6.30;;;1.70;;
52934;SDS011;38802;50.198;19.796;2023-07-29T06:45:05;1.90;;;1.10;;
52934;SDS011;38802;50.198;19.796;2023-07-29T06:47:33;2.20;;;1.20;;
52934;SDS011;38802;50.198;19.796;2023-07-29T06:50:01;1.50;;;1.10;;
52934;SDS011;38802;50.198;19.796;2023-07-29T06:52:32;2.80;;;1.00;;
52934;SDS011;38802;50.198;19.796;2023-07-29T06:55:03;2.00;;;1.20;;
52934;SDS011;38802;50.198;19.796;2023-07-29T06:57:34;2.10;;;1.30;;
52934;SDS011;38802;50.198;19.796;2023-07-29T07:00:03;1.50;;;1.00;;
52934;SDS011;38802;50.198;19.796;2023-07-29T07:02:32;4.30;;;1.00;;
52934;SDS011;38802;50.198;19.796;2023-07-29T07:05:01;3.60;;;1.20;;
52934;SDS011;38802;50.198;19.796;2023-07-29T07:07:40;2.50;;;1.30;;
52934;SDS011;38802;50.198;19.796;2023-07-29T07:10:09;1.40;;;1.10;;
52934;SDS011;38802;50.198;19.796;2023-07-29T07:12:45;2.80;;;1.50;;
52934;SDS011;38802;50.198;19.796;2023-07-29T07:15:14;1.30;;;1.00;;
52934;SDS011;38802;50.198;19.796;2023-07-29T07:18:19;1.30;;;1.10;;
52934;SDS011;38802;50.198;19.796;2023-07-29T07:20:52;4.10;;;1.10;;
52934;SDS011;38802;50.198;19.796;2023-07-29T07:33:05;1.90;;;1.10;;
52934;SDS011;38802;50.198;19.796;2023-07-29T07:35:40;1.80;;;0.90;;
52934;SDS011;38802;50.198;19.796;2023-07-29T07:38:21;1.70;;;1.20;;
52934;SDS011;38802;50.198;19.796;2023-07-29T07:40:56;2.30;;;1.20;;
52934;SDS011;38802;50.198;19.796;2023-07-29T07:43:24;1.90;;;1.20;;
52934;SDS011;38802;50.198;19.796;2023-07-29T07:46:03;2.60;;;1.50;;
52934;SDS011;38802;50.198;19.796;2023-07-29T07:48:31;3.10;;;1.20;;
52934;SDS011;38802;50.198;19.796;2023-07-29T07:51:09;2.00;;;1.70;;
52934;SDS011;38802;50.198;19.796;2023-07-29T07:54:10;2.30;;;1.10;;
52934;SDS011;38802;50.198;19.796;2023-07-29T07:56:38;2.20;;;1.20;;
52934;SDS011;38802;50.198;19.796;2023-07-29T07:59:07;2.60;;;1.10;;
52934;SDS011;38802;50.198;19.796;2023-07-29T08:01:36;2.40;;;1.40;;
52934;SDS011;38802;50.198;19.796;2023-07-29T08:04:05;3.50;;;1.20;;
52934;SDS011;38802;50.198;19.796;2023-07-29T08:06:34;2.30;;;1.20;;
52934;SDS011;38802;50.198;19.796;2023-07-29T08:09:05;1.40;;;1.20;;
52934;SDS011;38802;50.198;19.796;2023-07-29T08:11:33;2.40;;;1.50;;
52934;SDS011;38802;50.198;19.796;2023-07-29T08:14:01;1.20;;;1.00;;
52934;SDS011;38802;50.198;19.796;2023-07-29T08:16:29;1.80;;;1.00;;
52934;SDS011;38802;50.198;19.796;2023-07-29T08:18:58;1.50;;;1.20;;
52934;SDS011;38802;50.198;19.796;2023-07-29T08:21:26;3.30;;;1.00;;
52934;SDS011;38802;50.198;19.796;2023-07-29T08:23:54;2.00;;;1.60;;
52934;SDS011;38802;50.198;19.796;2023-07-29T08:26:23;2.10;;;1.00;;
52934;SDS011;38802;50.198;19.796;2023-07-29T08:28:51;1.10;;;1.00;;
52934;SDS011;38802;50.198;19.796;2023-07-29T08:31:22;2.50;;;0.90;;
52934;SDS011;38802;50.198;19.796;2023-07-29T08:33:50;1.30;;;1.10;;
52934;SDS011;38802;50.198;19.796;2023-07-29T08:36:19;1.20;;;1.00;;
52934;SDS011;38802;50.198;19.796;2023-07-29T08:38:47;4.70;;;0.90;;
52934;SDS011;38802;50.198;19.796;2023-07-29T08:41:25;1.10;;;1.00;;
52934;SDS011;38802;50.198;19.796;2023-07-29T08:44:06;1.10;;;1.00;;
52934;SDS011;38802;50.198;19.796;2023-07-29T08:47:05;1.40;;;1.00;;
52934;SDS011;38802;50.198;19.796;2023-07-29T08:49:33;1.90;;;1.00;;
52934;SDS011;38802;50.198;19.796;2023-07-29T08:52:01;1.50;;;1.10;;
52934;SDS011;38802;50.198;19.796;2023-07-29T08:54:31;1.60;;;1.40;;
52934;SDS011;38802;50.198;19.796;2023-07-29T08:57:00;1.50;;;1.10;;
52934;SDS011;38802;50.198;19.796;2023-07-29T08:59:28;3.80;;;1.00;;
52934;SDS011;38802;50.198;19.796;2023-07-29T09:01:56;1.10;;;0.90;;
52934;SDS011;38802;50.198;19.796;2023-07-29T09:04:26;1.30;;;1.00;;
52934;SDS011;38802;50.198;19.796;2023-07-29T09:06:54;1.20;;;0.90;;
52934;SDS011;38802;50.198;19.796;2023-07-29T09:09:24;1.50;;;0.90;;
52934;SDS011;38802;50.198;19.796;2023-07-29T09:11:53;1.90;;;1.30;;
52934;SDS011;38802;50.198;19.796;2023-07-29T09:14:24;1.10;;;1.00;;
52934;SDS011;38802;50.198;19.796;2023-07-29T09:16:52;0.90;;;0.80;;
52934;SDS011;38802;50.198;19.796;2023-07-29T09:19:24;4.30;;;1.10;;
52934;SDS011;38802;50.198;19.796;2023-07-29T09:21:54;1.50;;;1.00;;
52934;SDS011;38802;50.198;19.796;2023-07-29T09:24:22;2.00;;;0.90;;
52934;SDS011;38802;50.198;19.796;2023-07-29T09:26:50;2.60;;;0.90;;
52934;SDS011;38802;50.198;19.796;2023-07-29T09:29:22;3.70;;;1.00;;
52934;SDS011;38802;50.198;19.796;2023-07-29T09:31:51;3.30;;;1.10;;
52934;SDS011;38802;50.198;19.796;2023-07-29T09:34:19;2.90;;;0.80;;
52934;SDS011;38802;50.198;19.796;2023-07-29T09:36:49;2.10;;;0.90;;
52934;SDS011;38802;50.198;19.796;2023-07-29T09:39:19;4.60;;;0.70;;
52934;SDS011;38802;50.198;19.796;2023-07-29T09:41:51;0.70;;;0.60;;
52934;SDS011;38802;50.198;19.796;2023-07-29T09:44:19;0.70;;;0.70;;
52934;SDS011;38802;50.198;19.796;2023-07-29T09:46:47;1.40;;;0.70;;
52934;SDS011;38802;50.198;19.796;2023-07-29T09:49:15;0.90;;;0.70;;
52934;SDS011;38802;50.198;19.796;2023-07-29T09:51:43;2.80;;;0.90;;
52934;SDS011;38802;50.198;19.796;2023-07-29T09:54:11;1.40;;;0.90;;
52934;SDS011;38802;50.198;19.796;2023-07-29T09:56:41;3.30;;;0.90;;
52934;SDS011;38802;50.198;19.796;2023-07-29T09:59:33;1.10;;;1.00;;
52934;SDS011;38802;50.198;19.796;2023-07-29T10:02:02;1.10;;;0.80;;
52934;SDS011;38802;50.198;19.796;2023-07-29T10:04:30;1.90;;;1.00;;
52934;SDS011;38802;50.198;19.796;2023-07-29T10:07:01;1.50;;;0.90;;
52934;SDS011;38802;50.198;19.796;2023-07-29T10:09:30;0.90;;;0.80;;
52934;SDS011;38802;50.198;19.796;2023-07-29T10:11:59;3.70;;;0.90;;
52934;SDS011;38802;50.198;19.796;2023-07-29T10:14:28;1.30;;;1.20;;
52934;SDS011;38802;50.198;19.796;2023-07-29T10:16:59;19.00;;;2.00;;
52934;SDS011;38802;50.198;19.796;2023-07-29T10:19:28;1.80;;;1.10;;
52934;SDS011;38802;50.198;19.796;2023-07-29T10:21:58;2.90;;;1.20;;
52934;SDS011;38802;50.198;19.796;2023-07-29T10:24:30;2.50;;;1.20;;
52934;SDS011;38802;50.198;19.796;2023-07-29T10:27:01;2.00;;;1.00;;
52934;SDS011;38802;50.198;19.796;2023-07-29T10:29:31;1.20;;;1.10;;
52934;SDS011;38802;50.198;19.796;2023-07-29T10:32:02;3.10;;;1.10;;
52934;SDS011;38802;50.198;19.796;2023-07-29T10:34:32;8.50;;;1.20;;
52934;SDS011;38802;50.198;19.796;2023-07-29T10:37:04;2.40;;;1.00;;
52934;SDS011;38802;50.198;19.796;2023-07-29T10:39:38;2.40;;;2.00;;
52934;SDS011;38802;50.198;19.796;2023-07-29T10:42:10;3.60;;;2.50;;
52934;SDS011;38802;50.198;19.796;2023-07-29T10:47:14;5.90;;;1.20;;
52934;SDS011;38802;50.198;19.796;2023-07-29T10:49:44;5.20;;;1.20;;
52934;SDS011;38802;50.198;19.796;2023-07-29T10:52:14;2.60;;;1.10;;
52934;SDS011;38802;50.198;19.796;2023-07-29T10:54:47;7.60;;;1.00;;
52934;SDS011;38802;50.198;19.796;2023-07-29T10:57:29;1.20;;;0.90;;
52934;SDS011;38802;50.198;19.796;2023-07-29T11:00:04;2.20;;;1.10;;
52934;SDS011;38802;50.198;19.796;2023-07-29T11:02:36;1.30;;;0.90;;
52934;SDS011;38802;50.198;19.796;2023-07-29T11:05:06;1.80;;;1.20;;
52934;SDS011;38802;50.198;19.796;2023-07-29T11:07:47;2.50;;;1.60;;
52934;SDS011;38802;50.198;19.796;2023-07-29T11:10:16;1.40;;;1.10;;
52934;SDS011;38802;50.198;19.796;2023-07-29T11:12:48;7.00;;;1.80;;
52934;SDS011;38802;50.198;19.796;2023-07-29T11:15:20;1.80;;;1.70;;
52934;SDS011;38802;50.198;19.796;2023-07-29T11:20:19;4.20;;;3.80;;
52934;SDS011;38802;50.198;19.796;2023-07-29T11:22:50;6.40;;;2.60;;
52934;SDS011;38802;50.198;19.796;2023-07-29T11:25:25;2.50;;;1.70;;
52934;SDS011;38802;50.198;19.796;2023-07-29T11:28:14;1.80;;;1.60;;
52934;SDS011;38802;50.198;19.796;2023-07-29T11:34:48;4.50;;;1.30;;
52934;SDS011;38802;50.198;19.796;2023-07-29T11:37:17;2.40;;;1.40;;
52934;SDS011;38802;50.198;19.796;2023-07-29T11:39:44;3.60;;;2.70;;
52934;SDS011;38802;50.198;19.796;2023-07-29T11:42:22;10.80;;;9.00;;
52934;SDS011;38802;50.198;19.796;2023-07-29T11:44:52;9.70;;;8.20;;
52934;SDS011;38802;50.198;19.796;2023-07-29T11:47:20;5.00;;;4.30;;
52934;SDS011;38802;50.198;19.796;2023-07-29T11:52:53;2.90;;;1.40;;
52934;SDS011;38802;50.198;19.796;2023-07-29T11:55:22;4.50;;;1.20;;
52934;SDS011;38802;50.198;19.796;2023-07-29T11:57:51;1.40;;;1.10;;
52934;SDS011;38802;50.198;19.796;2023-07-29T12:00:20;1.80;;;0.90;;
52934;SDS011;38802;50.198;19.796;2023-07-29T12:02:49;1.90;;;1.20;;
52934;SDS011;38802;50.198;19.796;2023-07-29T12:05:18;1.20;;;1.10;;
52934;SDS011;38802;50.198;19.796;2023-07-29T12:07:49;1.70;;;1.00;;
52934;SDS011;38802;50.198;19.796;2023-07-29T12:10:17;1.50;;;1.20;;
52934;SDS011;38802;50.198;19.796;2023-07-29T12:12:47;2.70;;;2.10;;
52934;SDS011;38802;50.198;19.796;2023-07-29T12:15:37;2.10;;;1.90;;
52934;SDS011;38802;50.198;19.796;2023-07-29T12:18:08;4.10;;;1.60;;
52934;SDS011;38802;50.198;19.796;2023-07-29T12:20:36;2.00;;;1.30;;
52934;SDS011;38802;50.198;19.796;2023-07-29T12:23:04;2.60;;;1.60;;
52934;SDS011;38802;50.198;19.796;2023-07-29T12:25:34;1.30;;;1.20;;
52934;SDS011;38802;50.198;19.796;2023-07-29T12:28:06;1.90;;;1.40;;
52934;SDS011;38802;50.198;19.796;2023-07-29T12:30:41;2.30;;;2.10;;
52934;SDS011;38802;50.198;19.796;2023-07-29T12:33:09;5.50;;;3.00;;
52934;SDS011;38802;50.198;19.796;2023-07-29T12:35:38;3.50;;;2.80;;
52934;SDS011;38802;50.198;19.796;2023-07-29T12:38:06;4.80;;;2.10;;
52934;SDS011;38802;50.198;19.796;2023-07-29T12:40:37;1.70;;;1.50;;
52934;SDS011;38802;50.198;19.796;2023-07-29T12:43:06;1.40;;;1.30;;
52934;SDS011;38802;50.198;19.796;2023-07-29T12:45:37;1.90;;;1.30;;
52934;SDS011;38802;50.198;19.796;2023-07-29T12:51:10;4.10;;;1.40;;
52934;SDS011;38802;50.198;19.796;2023-07-29T12:53:44;1.70;;;1.10;;
52934;SDS011;38802;50.198;19.796;2023-07-29T12:56:12;4.40;;;1.30;;
52934;SDS011;38802;50.198;19.796;2023-07-29T12:58:40;1.60;;;1.30;;
52934;SDS011;38802;50.198;19.796;2023-07-29T13:01:08;1.30;;;1.20;;
52934;SDS011;38802;50.198;19.796;2023-07-29T13:03:37;2.00;;;1.40;;
52934;SDS011;38802;50.198;19.796;2023-07-29T13:06:05;5.00;;;1.30;;
52934;SDS011;38802;50.198;19.796;2023-07-29T13:08:33;1.30;;;1.20;;
52934;SDS011;38802;50.198;19.796;2023-07-29T13:11:01;1.10;;;1.00;;
52934;SDS011;38802;50.198;19.796;2023-07-29T13:13:31;1.30;;;1.10;;
52934;SDS011;38802;50.198;19.796;2023-07-29T13:16:03;1.40;;;1.10;;
52934;SDS011;38802;50.198;19.796;2023-07-29T13:18:32;1.00;;;0.90;;
52934;SDS011;38802;50.198;19.796;2023-07-29T13:21:05;1.90;;;1.10;;
52934;SDS011;38802;50.198;19.796;2023-07-29T13:23:33;1.80;;;1.00;;
52934;SDS011;38802;50.198;19.796;2023-07-29T13:26:01;1.10;;;1.00;;
52934;SDS011;38802;50.198;19.796;2023-07-29T13:28:30;3.40;;;1.10;;
52934;SDS011;38802;50.198;19.796;2023-07-29T13:30:58;3.90;;;1.20;;
52934;SDS011;38802;50.198;19.796;2023-07-29T13:33:26;1.90;;;1.00;;
52934;SDS011;38802;50.198;19.796;2023-07-29T13:35:54;1.10;;;1.00;;
52934;SDS011;38802;50.198;19.796;2023-07-29T13:38:22;2.00;;;1.10;;
52934;SDS011;38802;50.198;19.796;2023-07-29T13:40:50;2.30;;;1.20;;
52934;SDS011;38802;50.198;19.796;2023-07-29T13:43:18;1.40;;;1.20;;
52934;SDS011;38802;50.198;19.796;2023-07-29T13:45:46;2.20;;;1.20;;
52934;SDS011;38802;50.198;19.796;2023-07-29T13:48:19;1.20;;;1.10;;
52934;SDS011;38802;50.198;19.796;2023-07-29T13:50:50;1.40;;;1.30;;
52934;SDS011;38802;50.198;19.796;2023-07-29T13:53:19;1.30;;;1.20;;
52934;SDS011;38802;50.198;19.796;2023-07-29T13:55:47;2.50;;;1.40;;
52934;SDS011;38802;50.198;19.796;2023-07-29T13:58:15;1.30;;;1.10;;
52934;SDS011;38802;50.198;19.796;2023-07-29T14:00:43;1.60;;;1.30;;
52934;SDS011;38802;50.198;19.796;2023-07-29T14:03:11;2.30;;;1.20;;
52934;SDS011;38802;50.198;19.796;2023-07-29T14:05:39;1.80;;;1.60;;
52934;SDS011;38802;50.198;19.796;2023-07-29T14:08:07;2.60;;;1.30;;
52934;SDS011;38802;50.198;19.796;2023-07-29T14:10:35;2.00;;;1.00;;
52934;SDS011;38802;50.198;19.796;2023-07-29T14:13:03;1.30;;;1.20;;
52934;SDS011;38802;50.198;19.796;2023-07-29T14:15:31;8.90;;;1.70;;
52934;SDS011;38802;50.198;19.796;2023-07-29T14:18:00;3.40;;;1.50;;
52934;SDS011;38802;50.198;19.796;2023-07-29T14:20:30;3.20;;;1.10;;
52934;SDS011;38802;50.198;19.796;2023-07-29T14:22:58;3.30;;;1.10;;
52934;SDS011;38802;50.198;19.796;2023-07-29T14:25:26;1.40;;;1.30;;
52934;SDS011;38802;50.198;19.796;2023-07-29T14:27:55;1.40;;;1.20;;
52934;SDS011;38802;50.198;19.796;2023-07-29T14:30:23;1.60;;;1.00;;
52934;SDS011;38802;50.198;19.796;2023-07-29T14:32:51;1.20;;;1.10;;
52934;SDS011;38802;50.198;19.796;2023-07-29T14:35:19;2.90;;;1.50;;
52934;SDS011;38802;50.198;19.796;2023-07-29T14:37:47;2.20;;;1.70;;
52934;SDS011;38802;50.198;19.796;2023-07-29T14:40:15;3.30;;;1.30;;
52934;SDS011;38802;50.198;19.796;2023-07-29T14:42:43;3.10;;;1.10;;
52934;SDS011;38802;50.198;19.796;2023-07-29T14:45:11;1.50;;;1.30;;
52934;SDS011;38802;50.198;19.796;2023-07-29T14:47:39;2.50;;;1.80;;
52934;SDS011;38802;50.198;19.796;2023-07-29T14:50:08;2.40;;;1.60;;
52934;SDS011;38802;50.198;19.796;2023-07-29T14:52:36;1.90;;;1.30;;
52934;SDS011;38802;50.198;19.796;2023-07-29T14:55:04;1.50;;;1.40;;
52934;SDS011;38802;50.198;19.796;2023-07-29T14:57:32;3.70;;;1.30;;
52934;SDS011;38802;50.198;19.796;2023-07-29T15:00:00;1.70;;;1.30;;
52934;SDS011;38802;50.198;19.796;2023-07-29T15:02:29;2.40;;;1.20;;
52934;SDS011;38802;50.198;19.796;2023-07-29T15:04:57;1.50;;;1.00;;
52934;SDS011;38802;50.198;19.796;2023-07-29T15:07:25;3.80;;;1.10;;
52934;SDS011;38802;50.198;19.796;2023-07-29T15:09:53;1.70;;;1.10;;
52934;SDS011;38802;50.198;19.796;2023-07-29T15:12:21;3.00;;;1.30;;
52934;SDS011;38802;50.198;19.796;2023-07-29T15:14:49;6.10;;;1.20;;
52934;SDS011;38802;50.198;19.796;2023-07-29T15:17:17;1.50;;;1.20;;
52934;SDS011;38802;50.198;19.796;2023-07-29T15:19:45;1.50;;;1.40;;
52934;SDS011;38802;50.198;19.796;2023-07-29T15:22:17;1.90;;;1.70;;
52934;SDS011;38802;50.198;19.796;2023-07-29T15:24:45;1.30;;;1.00;;
52934;SDS011;38802;50.198;19.796;2023-07-29T15:27:14;1.40;;;1.10;;